sensor_id;sensor_type;location;lat;lon;timestamp;pressure;altitude;pressure_sealevel;temperature;humidity
22241;BME280;11289;52.524;13.694;2022-07-04T00:02:18;100862.19;;;23.58;49.73
22241;BME280;11289;52.524;13.694;2022-07-04T00:04:44;100852.09;;;23.53;49.99
22241;BME280;11289;52.524;13.694;2022-07-04T00:07:09;100858.63;;;23.46;49.97
22241;BME280;11289;52.524;13.694;2022-07-04T00:09:35;100852.28;;;23.28;50.58
22241;BME280;11289;52.524;13.694;2022-07-04T00:12:00;100845.81;;;23.24;50.23
22241;BME280;11289;52.524;13.694;2022-07-04T00:14:25;100866.81;;;23.26;50.49
22241;BME280;11289;52.524;13.694;2022-07-04T00:16:51;100862.84;;;23.17;50.52
22241;BME280;11289;52.524;13.694;2022-07-04T00:19:16;100858.81;;;23.10;50.73
22241;BME280;11289;52.524;13.694;2022-07-04T00:21:42;100862.84;;;23.09;51.14
22241;BME280;11289;52.524;13.694;2022-07-04T00:24:07;100861.63;;;23.07;50.97
22241;BME280;11289;52.524;13.694;2022-07-04T00:26:32;100852.78;;;22.98;50.57
22241;BME280;11289;52.524;13.694;2022-07-04T00:28:58;100857.25;;;22.95;50.92
22241;BME280;11289;52.524;13.694;2022-07-04T00:31:23;100849.19;;;22.86;51.10
22241;BME280;11289;52.524;13.694;2022-07-04T00:33:49;100850.81;;;22.87;51.00
22241;BME280;11289;52.524;13.694;2022-07-04T00:36:14;100847.97;;;22.87;50.66
22241;BME280;11289;52.524;13.694;2022-07-04T00:38:39;100852.81;;;22.87;50.78
22241;BME280;11289;52.524;13.694;2022-07-04T00:41:05;100843.56;;;22.72;51.00
22241;BME280;11289;52.524;13.694;2022-07-04T00:43:30;100841.97;;;22.71;51.44
22241;BME280;11289;52.524;13.694;2022-07-04T00:45:56;100849.22;;;22.75;51.56
22241;BME280;11289;52.524;13.694;2022-07-04T00:48:21;100857.34;;;22.66;51.52
22241;BME280;11289;52.524;13.694;2022-07-04T00:50:47;100862.22;;;22.58;51.87
22241;BME280;11289;52.524;13.694;2022-07-04T00:53:21;100850.53;;;22.46;52.06
22241;BME280;11289;52.524;13.694;2022-07-04T00:55:47;100846.50;;;22.36;52.18
22241;BME280;11289;52.524;13.694;2022-07-04T00:58:13;100855.00;;;22.39;52.39
22241;BME280;11289;52.524;13.694;2022-07-04T01:00:38;100861.84;;;22.46;52.21
22241;BME280;11289;52.524;13.694;2022-07-04T01:03:04;100859.81;;;22.39;52.39
22241;BME280;11289;52.524;13.694;2022-07-04T01:05:29;100854.56;;;22.37;52.21
22241;BME280;11289;52.524;13.694;2022-07-04T01:07:55;100849.31;;;22.29;52.22
22241;BME280;11289;52.524;13.694;2022-07-04T01:10:22;100852.94;;;22.29;52.36
22241;BME280;11289;52.524;13.694;2022-07-04T01:12:47;100855.38;;;22.20;52.67
22241;BME280;11289;52.524;13.694;2022-07-04T01:15:12;100854.97;;;22.25;52.91
22241;BME280;11289;52.524;13.694;2022-07-04T01:17:38;100827.53;;;22.04;52.87
22241;BME280;11289;52.524;13.694;2022-07-04T01:20:04;100844.47;;;22.11;52.91
22241;BME280;11289;52.524;13.694;2022-07-04T01:22:30;100840.03;;;22.21;53.13
22241;BME280;11289;52.524;13.694;2022-07-04T01:24:55;100851.75;;;22.19;52.91
22241;BME280;11289;52.524;13.694;2022-07-04T01:27:20;100851.34;;;22.14;53.25
22241;BME280;11289;52.524;13.694;2022-07-04T01:29:46;100855.81;;;22.07;52.97
22241;BME280;11289;52.524;13.694;2022-07-04T01:32:11;100850.94;;;22.04;53.17
22241;BME280;11289;52.524;13.694;2022-07-04T01:34:37;100845.28;;;21.97;53.50
22241;BME280;11289;52.524;13.694;2022-07-04T01:37:04;100864.66;;;22.06;53.31
22241;BME280;11289;52.524;13.694;2022-07-04T01:39:29;100863.84;;;22.05;53.42
22241;BME280;11289;52.524;13.694;2022-07-04T01:41:55;100871.53;;;22.05;53.17
22241;BME280;11289;52.524;13.694;2022-07-04T01:44:21;100868.31;;;21.99;53.41
22241;BME280;11289;52.524;13.694;2022-07-04T01:46:46;100865.06;;;21.94;53.56
22241;BME280;11289;52.524;13.694;2022-07-04T01:49:12;100869.53;;;21.87;53.69
22241;BME280;11289;52.524;13.694;2022-07-04T01:51:48;100871.91;;;21.78;53.92
22241;BME280;11289;52.524;13.694;2022-07-04T01:54:13;100878.00;;;21.80;53.80
22241;BME280;11289;52.524;13.694;2022-07-04T01:56:39;100869.09;;;21.78;53.92
22241;BME280;11289;52.524;13.694;2022-07-04T01:59:05;100874.75;;;21.74;53.96
22241;BME280;11289;52.524;13.694;2022-07-04T02:01:30;100887.66;;;21.68;53.88
22241;BME280;11289;52.524;13.694;2022-07-04T02:04:01;100865.78;;;21.47;54.55
22241;BME280;11289;52.524;13.694;2022-07-04T02:06:28;100887.63;;;21.54;54.37
22241;BME280;11289;52.524;13.694;2022-07-04T02:08:54;100893.28;;;21.54;54.83
22241;BME280;11289;52.524;13.694;2022-07-04T02:11:38;100896.91;;;21.51;55.08
22241;BME280;11289;52.524;13.694;2022-07-04T02:14:22;100898.88;;;21.47;55.33
22241;BME280;11289;52.524;13.694;2022-07-04T02:16:48;100898.81;;;21.29;55.38
22241;BME280;11289;52.524;13.694;2022-07-04T02:19:13;100904.44;;;21.18;55.92
22241;BME280;11289;52.524;13.694;2022-07-04T02:21:39;100906.81;;;21.09;56.14
22241;BME280;11289;52.524;13.694;2022-07-04T02:24:27;100920.13;;;21.12;56.35
22241;BME280;11289;52.524;13.694;2022-07-04T02:26:52;100926.94;;;21.03;56.64
22241;BME280;11289;52.524;13.694;2022-07-04T02:29:18;100932.53;;;21.00;56.69
22241;BME280;11289;52.524;13.694;2022-07-04T02:31:43;100931.75;;;20.96;56.63
22241;BME280;11289;52.524;13.694;2022-07-04T02:34:17;100931.75;;;20.99;56.90
22241;BME280;11289;52.524;13.694;2022-07-04T02:36:48;100927.28;;;20.95;56.93
22241;BME280;11289;52.524;13.694;2022-07-04T02:39:13;100931.69;;;20.89;58.04
22241;BME280;11289;52.524;13.694;2022-07-04T02:42:05;100944.50;;;20.75;58.40
22241;BME280;11289;52.524;13.694;2022-07-04T02:44:30;100936.75;;;20.65;58.28
22241;BME280;11289;52.524;13.694;2022-07-04T02:46:56;100935.09;;;20.60;58.57
22241;BME280;11289;52.524;13.694;2022-07-04T02:49:35;100938.31;;;20.59;58.79
22241;BME280;11289;52.524;13.694;2022-07-04T02:52:00;100953.19;;;20.52;59.13
22241;BME280;11289;52.524;13.694;2022-07-04T02:54:26;100953.50;;;20.40;59.83
22241;BME280;11289;52.524;13.694;2022-07-04T02:56:51;100952.28;;;20.41;59.74
22241;BME280;11289;52.524;13.694;2022-07-04T02:59:16;100963.19;;;20.46;59.25
22241;BME280;11289;52.524;13.694;2022-07-04T03:01:42;100968.06;;;20.49;59.64
22241;BME280;11289;52.524;13.694;2022-07-04T03:04:36;100970.81;;;20.42;60.17
22241;BME280;11289;52.524;13.694;2022-07-04T03:07:16;100968.38;;;20.37;60.08
22241;BME280;11289;52.524;13.694;2022-07-04T03:09:44;100966.75;;;20.35;60.64
22241;BME280;11289;52.524;13.694;2022-07-04T03:12:17;100971.19;;;20.37;60.67
22241;BME280;11289;52.524;13.694;2022-07-04T03:14:50;100971.53;;;20.31;61.13
22241;BME280;11289;52.524;13.694;2022-07-04T03:17:18;100948.06;;;20.16;61.44
22241;BME280;11289;52.524;13.694;2022-07-04T03:19:43;100969.88;;;20.23;62.12
22241;BME280;11289;52.524;13.694;2022-07-04T03:22:08;100981.88;;;20.16;62.72
22241;BME280;11289;52.524;13.694;2022-07-04T03:24:34;100968.88;;;20.05;62.29
22241;BME280;11289;52.524;13.694;2022-07-04T03:26:59;100981.84;;;20.13;62.75
22241;BME280;11289;52.524;13.694;2022-07-04T03:29:24;100979.03;;;20.13;63.07
22241;BME280;11289;52.524;13.694;2022-07-04T03:31:51;100979.44;;;20.15;63.26
22241;BME280;11289;52.524;13.694;2022-07-04T03:34:16;100964.44;;;20.04;63.47
22241;BME280;11289;52.524;13.694;2022-07-04T03:36:42;100962.75;;;19.95;63.77
22241;BME280;11289;52.524;13.694;2022-07-04T03:39:07;100972.03;;;19.99;63.83
22241;BME280;11289;52.524;13.694;2022-07-04T03:41:33;100974.47;;;20.01;64.01
22241;BME280;11289;52.524;13.694;2022-07-04T03:43:58;100989.78;;;20.00;64.23
22241;BME280;11289;52.524;13.694;2022-07-04T03:46:23;100995.78;;;19.98;64.28
22241;BME280;11289;52.524;13.694;2022-07-04T03:48:49;101009.13;;;20.05;64.24
22241;BME280;11289;52.524;13.694;2022-07-04T03:51:15;101000.22;;;19.99;64.36
22241;BME280;11289;52.524;13.694;2022-07-04T03:53:41;101013.16;;;20.04;64.54
22241;BME280;11289;52.524;13.694;2022-07-04T03:56:07;101010.66;;;19.95;64.93
22241;BME280;11289;52.524;13.694;2022-07-04T03:58:33;101010.59;;;19.88;64.96
22241;BME280;11289;52.524;13.694;2022-07-04T04:00:59;101020.69;;;19.93;65.30
22241;BME280;11289;52.524;13.694;2022-07-04T04:03:25;101018.59;;;19.86;65.56
22241;BME280;11289;52.524;13.694;2022-07-04T04:06:09;101012.09;;;19.82;66.39
22241;BME280;11289;52.524;13.694;2022-07-04T04:08:34;101017.31;;;19.80;66.28
22241;BME280;11289;52.524;13.694;2022-07-04T04:11:00;101025.38;;;19.81;66.44
22241;BME280;11289;52.524;13.694;2022-07-04T04:13:25;101021.78;;;19.81;66.52
22241;BME280;11289;52.524;13.694;2022-07-04T04:15:50;101005.94;;;19.73;66.77
22241;BME280;11289;52.524;13.694;2022-07-04T04:18:16;101030.50;;;19.72;66.83
22241;BME280;11289;52.524;13.694;2022-07-04T04:20:41;101045.91;;;19.82;66.68
22241;BME280;11289;52.524;13.694;2022-07-04T04:23:07;101037.94;;;19.88;67.05
22241;BME280;11289;52.524;13.694;2022-07-04T04:25:32;101027.78;;;19.79;66.72
22241;BME280;11289;52.524;13.694;2022-07-04T04:27:57;101044.31;;;19.81;66.89
22241;BME280;11289;52.524;13.694;2022-07-04T04:30:23;101063.72;;;19.90;66.74
22241;BME280;11289;52.524;13.694;2022-07-04T04:32:48;101067.00;;;19.95;66.93
22241;BME280;11289;52.524;13.694;2022-07-04T04:35:13;101051.16;;;19.83;67.40
22241;BME280;11289;52.524;13.694;2022-07-04T04:37:39;101058.88;;;19.90;67.23
22241;BME280;11289;52.524;13.694;2022-07-04T04:40:05;101058.41;;;19.85;67.15
22241;BME280;11289;52.524;13.694;2022-07-04T04:42:31;101055.59;;;19.85;67.32
22241;BME280;11289;52.524;13.694;2022-07-04T04:44:56;101046.72;;;19.82;67.46
22241;BME280;11289;52.524;13.694;2022-07-04T04:47:22;101046.69;;;19.79;67.49
22241;BME280;11289;52.524;13.694;2022-07-04T04:49:47;101056.47;;;19.89;67.48
22241;BME280;11289;52.524;13.694;2022-07-04T04:52:12;101039.75;;;20.07;67.22
22241;BME280;11289;52.524;13.694;2022-07-04T04:54:38;101051.25;;;20.28;66.61
22241;BME280;11289;52.524;13.694;2022-07-04T04:57:04;101048.56;;;20.39;66.42
22241;BME280;11289;52.524;13.694;2022-07-04T04:59:30;101040.97;;;20.47;66.21
22241;BME280;11289;52.524;13.694;2022-07-04T05:01:57;101048.28;;;20.55;65.94
22241;BME280;11289;52.524;13.694;2022-07-04T05:04:23;101053.72;;;20.75;65.43
22241;BME280;11289;52.524;13.694;2022-07-04T05:06:48;101070.75;;;20.85;65.25
22241;BME280;11289;52.524;13.694;2022-07-04T05:09:14;101073.63;;;20.96;64.74
22241;BME280;11289;52.524;13.694;2022-07-04T05:11:39;101068.78;;;20.93;64.65
22241;BME280;11289;52.524;13.694;2022-07-04T05:14:05;101054.16;;;20.77;64.76
22241;BME280;11289;52.524;13.694;2022-07-04T05:16:30;101078.44;;;20.92;64.83
22241;BME280;11289;52.524;13.694;2022-07-04T05:18:56;101074.44;;;20.93;64.92
22241;BME280;11289;52.524;13.694;2022-07-04T05:21:21;101073.63;;;20.96;64.48
22241;BME280;11289;52.524;13.694;2022-07-04T05:23:47;101073.97;;;20.87;64.29
22241;BME280;11289;52.524;13.694;2022-07-04T05:26:12;101071.16;;;20.87;64.67
22241;BME280;11289;52.524;13.694;2022-07-04T05:28:38;101068.69;;;20.82;64.54
22241;BME280;11289;52.524;13.694;2022-07-04T05:31:03;101075.59;;;20.89;64.53
22241;BME280;11289;52.524;13.694;2022-07-04T05:33:28;101079.69;;;20.95;64.51
22241;BME280;11289;52.524;13.694;2022-07-04T05:35:54;101080.97;;;21.04;64.29
22241;BME280;11289;52.524;13.694;2022-07-04T05:38:19;101070.53;;;21.09;64.15
22241;BME280;11289;52.524;13.694;2022-07-04T05:40:45;101073.38;;;21.16;63.99
22241;BME280;11289;52.524;13.694;2022-07-04T05:43:10;101084.31;;;21.25;63.40
22241;BME280;11289;52.524;13.694;2022-07-04T05:45:37;101088.41;;;21.34;63.01
22241;BME280;11289;52.524;13.694;2022-07-04T05:48:02;101094.09;;;21.42;63.11
22241;BME280;11289;52.524;13.694;2022-07-04T05:50:28;101085.59;;;21.31;62.96
22241;BME280;11289;52.524;13.694;2022-07-04T05:52:53;101102.97;;;21.36;63.14
22241;BME280;11289;52.524;13.694;2022-07-04T05:55:19;101107.44;;;21.45;63.11
22241;BME280;11289;52.524;13.694;2022-07-04T05:57:44;101087.66;;;21.45;62.82
22241;BME280;11289;52.524;13.694;2022-07-04T06:00:10;101096.72;;;21.72;62.14
22241;BME280;11289;52.524;13.694;2022-07-04T06:02:37;101093.06;;;21.64;62.10
22241;BME280;11289;52.524;13.694;2022-07-04T06:05:02;101093.84;;;21.61;62.28
22241;BME280;11289;52.524;13.694;2022-07-04T06:07:28;101099.66;;;21.94;61.66
22241;BME280;11289;52.524;13.694;2022-07-04T06:09:53;101109.41;;;22.11;60.99
22241;BME280;11289;52.524;13.694;2022-07-04T06:12:19;101109.91;;;22.34;60.55
22241;BME280;11289;52.524;13.694;2022-07-04T06:14:44;101109.53;;;22.50;59.31
22241;BME280;11289;52.524;13.694;2022-07-04T06:17:11;101124.50;;;22.62;58.40
22241;BME280;11289;52.524;13.694;2022-07-04T06:19:36;101116.84;;;22.66;58.10
22241;BME280;11289;52.524;13.694;2022-07-04T06:22:02;101129.38;;;22.86;57.86
22241;BME280;11289;52.524;13.694;2022-07-04T06:24:28;101118.06;;;22.93;57.43
22241;BME280;11289;52.524;13.694;2022-07-04T06:26:54;101119.66;;;23.09;56.77
22241;BME280;11289;52.524;13.694;2022-07-04T06:29:19;101119.28;;;23.18;56.00
22241;BME280;11289;52.524;13.694;2022-07-04T06:31:45;101129.00;;;23.24;56.05
22241;BME280;11289;52.524;13.694;2022-07-04T06:34:10;101124.53;;;23.44;55.47
22241;BME280;11289;52.524;13.694;2022-07-04T06:36:54;101137.41;;;23.67;54.63
22241;BME280;11289;52.524;13.694;2022-07-04T06:39:19;101132.97;;;23.62;54.21
22241;BME280;11289;52.524;13.694;2022-07-04T06:41:45;101140.66;;;23.65;53.71
22241;BME280;11289;52.524;13.694;2022-07-04T06:44:10;101132.56;;;23.64;53.69
22241;BME280;11289;52.524;13.694;2022-07-04T06:46:36;101142.22;;;23.95;53.61
22241;BME280;11289;52.524;13.694;2022-07-04T06:49:01;101148.16;;;24.30;52.87
22241;BME280;11289;52.524;13.694;2022-07-04T06:51:27;101150.50;;;24.46;50.87
22241;BME280;11289;52.524;13.694;2022-07-04T06:53:52;101156.06;;;24.67;51.18
22241;BME280;11289;52.524;13.694;2022-07-04T06:56:18;101156.34;;;24.80;49.75
22241;BME280;11289;52.524;13.694;2022-07-04T06:58:44;101165.19;;;24.97;48.96
22241;BME280;11289;52.524;13.694;2022-07-04T07:01:09;101166.34;;;25.03;48.24
22241;BME280;11289;52.524;13.694;2022-07-04T07:03:35;101157.88;;;24.99;48.28
22241;BME280;11289;52.524;13.694;2022-07-04T07:06:01;101171.59;;;25.08;48.04
22241;BME280;11289;52.524;13.694;2022-07-04T07:08:28;101159.38;;;25.11;47.22
22241;BME280;11289;52.524;13.694;2022-07-04T07:10:53;101159.69;;;25.24;47.00
22241;BME280;11289;52.524;13.694;2022-07-04T07:13:19;101162.06;;;25.33;45.83
22241;BME280;11289;52.524;13.694;2022-07-04T07:15:44;101159.47;;;25.49;45.54
22241;BME280;11289;52.524;13.694;2022-07-04T07:18:10;101165.34;;;25.69;44.67
22241;BME280;11289;52.524;13.694;2022-07-04T07:20:36;101164.34;;;25.87;44.24
22241;BME280;11289;52.524;13.694;2022-07-04T07:23:02;101162.94;;;26.06;42.62
22241;BME280;11289;52.524;13.694;2022-07-04T07:25:29;101162.66;;;26.28;41.98
22241;BME280;11289;52.524;13.694;2022-07-04T07:27:54;101159.66;;;26.38;41.87
22241;BME280;11289;52.524;13.694;2022-07-04T07:30:20;101164.72;;;26.54;41.91
22241;BME280;11289;52.524;13.694;2022-07-04T07:32:45;101163.75;;;26.65;40.53
22241;BME280;11289;52.524;13.694;2022-07-04T07:35:11;101160.78;;;26.75;40.61
22241;BME280;11289;52.524;13.694;2022-07-04T07:37:36;101163.78;;;26.92;39.21
22241;BME280;11289;52.524;13.694;2022-07-04T07:40:02;101166.72;;;27.12;39.44
22241;BME280;11289;52.524;13.694;2022-07-04T07:42:28;101167.56;;;27.33;39.11
22241;BME280;11289;52.524;13.694;2022-07-04T07:44:53;101171.94;;;27.41;38.62
22241;BME280;11289;52.524;13.694;2022-07-04T07:47:19;101183.97;;;27.52;38.44
22241;BME280;11289;52.524;13.694;2022-07-04T07:49:44;101173.69;;;27.78;37.70
22241;BME280;11289;52.524;13.694;2022-07-04T07:52:13;101171.53;;;28.06;37.74
22241;BME280;11289;52.524;13.694;2022-07-04T07:54:38;101188.13;;;28.31;36.60
22241;BME280;11289;52.524;13.694;2022-07-04T07:57:04;101185.41;;;28.24;36.27
22241;BME280;11289;52.524;13.694;2022-07-04T07:59:29;101183.88;;;28.00;35.63
22241;BME280;11289;52.524;13.694;2022-07-04T08:01:55;101184.59;;;27.84;35.95
22241;BME280;11289;52.524;13.694;2022-07-04T08:04:20;101187.25;;;27.94;36.39
22241;BME280;11289;52.524;13.694;2022-07-04T08:07:08;101180.53;;;28.05;36.16
22241;BME280;11289;52.524;13.694;2022-07-04T08:09:35;101186.00;;;28.16;35.79
22241;BME280;11289;52.524;13.694;2022-07-04T08:12:04;101186.44;;;28.14;34.85
22241;BME280;11289;52.524;13.694;2022-07-04T08:14:30;101176.41;;;27.86;35.68
22241;BME280;11289;52.524;13.694;2022-07-04T08:16:57;101194.22;;;27.70;34.72
22241;BME280;11289;52.524;13.694;2022-07-04T08:19:23;101179.53;;;27.24;35.26
22241;BME280;11289;52.524;13.694;2022-07-04T08:21:50;101183.69;;;26.96;35.86
22241;BME280;11289;52.524;13.694;2022-07-04T08:24:15;101191.72;;;26.73;35.88
22241;BME280;11289;52.524;13.694;2022-07-04T08:26:42;101181.34;;;26.59;36.29
22241;BME280;11289;52.524;13.694;2022-07-04T08:29:19;101183.63;;;26.41;36.74
22241;BME280;11289;52.524;13.694;2022-07-04T08:31:46;101183.94;;;26.16;37.15
22241;BME280;11289;52.524;13.694;2022-07-04T08:34:11;101187.69;;;26.09;37.76
22241;BME280;11289;52.524;13.694;2022-07-04T08:36:37;101190.16;;;26.07;37.90
22241;BME280;11289;52.524;13.694;2022-07-04T08:39:02;101200.72;;;26.06;38.69
22241;BME280;11289;52.524;13.694;2022-07-04T08:41:36;101200.34;;;26.04;38.29
22241;BME280;11289;52.524;13.694;2022-07-04T08:44:03;101203.13;;;26.08;38.11
22241;BME280;11289;52.524;13.694;2022-07-04T08:46:30;101202.81;;;25.99;37.80
22241;BME280;11289;52.524;13.694;2022-07-04T08:48:58;101198.41;;;25.90;37.49
22241;BME280;11289;52.524;13.694;2022-07-04T08:51:44;101191.22;;;25.82;37.40
22241;BME280;11289;52.524;13.694;2022-07-04T08:54:10;101192.06;;;25.79;37.15
22241;BME280;11289;52.524;13.694;2022-07-04T08:56:55;101215.19;;;25.81;38.30
22241;BME280;11289;52.524;13.694;2022-07-04T08:59:39;101206.06;;;26.01;38.47
22241;BME280;11289;52.524;13.694;2022-07-04T09:02:06;101208.69;;;26.19;37.43
22241;BME280;11289;52.524;13.694;2022-07-04T09:04:31;101203.53;;;26.41;37.29
22241;BME280;11289;52.524;13.694;2022-07-04T09:06:57;101210.16;;;26.92;36.58
22241;BME280;11289;52.524;13.694;2022-07-04T09:09:24;101204.22;;;27.58;35.73
22241;BME280;11289;52.524;13.694;2022-07-04T09:11:51;101196.88;;;27.80;34.29
22241;BME280;11289;52.524;13.694;2022-07-04T09:14:16;101212.22;;;28.10;34.11
22241;BME280;11289;52.524;13.694;2022-07-04T09:16:41;101207.28;;;28.51;33.18
22241;BME280;11289;52.524;13.694;2022-07-04T09:19:21;101208.09;;;28.88;32.30
22241;BME280;11289;52.524;13.694;2022-07-04T09:21:47;101213.13;;;29.17;32.19
22241;BME280;11289;52.524;13.694;2022-07-04T09:24:14;101216.53;;;29.28;31.35
22241;BME280;11289;52.524;13.694;2022-07-04T09:26:44;101220.63;;;29.44;31.04
22241;BME280;11289;52.524;13.694;2022-07-04T09:29:10;101215.50;;;29.68;30.55
22241;BME280;11289;52.524;13.694;2022-07-04T09:31:37;101213.25;;;29.92;30.81
22241;BME280;11289;52.524;13.694;2022-07-04T09:34:04;101206.34;;;30.19;30.25
22241;BME280;11289;52.524;13.694;2022-07-04T09:36:43;101201.69;;;30.38;29.07
22241;BME280;11289;52.524;13.694;2022-07-04T09:39:16;101199.00;;;30.47;29.95
22241;BME280;11289;52.524;13.694;2022-07-04T09:44:14;101198.06;;;30.89;27.66
22241;BME280;11289;52.524;13.694;2022-07-04T09:46:41;101197.31;;;31.14;27.92
22241;BME280;11289;52.524;13.694;2022-07-04T09:49:06;101192.81;;;31.13;28.55
22241;BME280;11289;52.524;13.694;2022-07-04T09:56:46;101190.75;;;31.14;28.49
22241;BME280;11289;52.524;13.694;2022-07-04T09:59:11;101195.44;;;31.20;27.67
22241;BME280;11289;52.524;13.694;2022-07-04T10:01:37;101197.75;;;31.13;28.52
22241;BME280;11289;52.524;13.694;2022-07-04T10:04:05;101205.19;;;31.36;28.25
22241;BME280;11289;52.524;13.694;2022-07-04T10:06:32;101191.28;;;31.82;28.12
22241;BME280;11289;52.524;13.694;2022-07-04T10:09:15;101204.03;;;32.25;27.96
22241;BME280;11289;52.524;13.694;2022-07-04T10:11:41;101199.31;;;32.63;25.64
22241;BME280;11289;52.524;13.694;2022-07-04T10:14:09;101197.81;;;32.49;25.39
22241;BME280;11289;52.524;13.694;2022-07-04T10:16:35;101204.72;;;32.61;25.38
22241;BME280;11289;52.524;13.694;2022-07-04T10:19:01;101215.78;;;32.94;25.71
22241;BME280;11289;52.524;13.694;2022-07-04T10:21:27;101186.69;;;32.92;24.92
22241;BME280;11289;52.524;13.694;2022-07-04T10:23:53;101206.66;;;32.95;25.45
22241;BME280;11289;52.524;13.694;2022-07-04T10:26:20;101194.34;;;32.95;25.72
22241;BME280;11289;52.524;13.694;2022-07-04T10:28:47;101195.59;;;32.85;25.73
22241;BME280;11289;52.524;13.694;2022-07-04T10:31:13;101206.34;;;32.62;26.29
22241;BME280;11289;52.524;13.694;2022-07-04T10:33:40;101205.72;;;32.14;26.32
22241;BME280;11289;52.524;13.694;2022-07-04T10:36:20;101191.75;;;31.81;26.91
22241;BME280;11289;52.524;13.694;2022-07-04T10:38:56;101196.56;;;32.06;26.68
22241;BME280;11289;52.524;13.694;2022-07-04T10:41:24;101207.38;;;32.02;26.81
22241;BME280;11289;52.524;13.694;2022-07-04T10:44:03;101203.19;;;32.16;26.58
22241;BME280;11289;52.524;13.694;2022-07-04T10:46:36;101200.38;;;32.25;26.42
22241;BME280;11289;52.524;13.694;2022-07-04T10:51:44;101191.13;;;31.86;26.29
22241;BME280;11289;52.524;13.694;2022-07-04T10:56:56;101199.44;;;32.06;26.09
22241;BME280;11289;52.524;13.694;2022-07-04T10:59:27;101199.53;;;31.45;26.43
22241;BME280;11289;52.524;13.694;2022-07-04T11:05:12;101202.56;;;30.51;27.85
22241;BME280;11289;52.524;13.694;2022-07-04T11:18:10;101187.22;;;31.92;26.14
22241;BME280;11289;52.524;13.694;2022-07-04T11:20:41;101183.56;;;31.44;26.39
22241;BME280;11289;52.524;13.694;2022-07-04T11:23:17;101182.94;;;31.27;26.87
22241;BME280;11289;52.524;13.694;2022-07-04T11:25:45;101178.84;;;31.15;27.16
22241;BME280;11289;52.524;13.694;2022-07-04T11:28:21;101168.28;;;31.60;27.31
22241;BME280;11289;52.524;13.694;2022-07-04T11:30:57;101164.31;;;32.02;27.05
22241;BME280;11289;52.524;13.694;2022-07-04T11:33:27;101174.06;;;32.26;26.07
22241;BME280;11289;52.524;13.694;2022-07-04T11:36:09;101169.78;;;32.31;25.85
22241;BME280;11289;52.524;13.694;2022-07-04T11:41:17;101159.25;;;31.84;26.70
22241;BME280;11289;52.524;13.694;2022-07-04T11:44:06;101171.84;;;32.08;25.96
22241;BME280;11289;52.524;13.694;2022-07-04T11:47:01;101173.78;;;32.34;25.90
22241;BME280;11289;52.524;13.694;2022-07-04T11:49:27;101166.31;;;32.68;25.51
22241;BME280;11289;52.524;13.694;2022-07-04T11:51:52;101164.16;;;32.90;25.47
22241;BME280;11289;52.524;13.694;2022-07-04T11:54:20;101161.09;;;32.85;24.92
22241;BME280;11289;52.524;13.694;2022-07-04T11:56:46;101162.75;;;32.63;25.25
22241;BME280;11289;52.524;13.694;2022-07-04T11:59:14;101155.13;;;32.38;25.69
22241;BME280;11289;52.524;13.694;2022-07-04T12:01:44;101163.44;;;31.92;26.30
22241;BME280;11289;52.524;13.694;2022-07-04T12:04:17;101160.38;;;31.51;26.63
22241;BME280;11289;52.524;13.694;2022-07-04T12:06:44;101155.25;;;31.46;27.16
22241;BME280;11289;52.524;13.694;2022-07-04T12:09:11;101152.56;;;31.17;27.06
22241;BME280;11289;52.524;13.694;2022-07-04T12:11:59;101162.19;;;30.97;27.80
22241;BME280;11289;52.524;13.694;2022-07-04T12:14:26;101158.66;;;30.80;28.38
22241;BME280;11289;52.524;13.694;2022-07-04T12:19:36;101145.25;;;30.90;27.86
22241;BME280;11289;52.524;13.694;2022-07-04T12:22:02;101154.53;;;30.81;27.79
22241;BME280;11289;52.524;13.694;2022-07-04T12:24:28;101154.19;;;31.05;27.90
22241;BME280;11289;52.524;13.694;2022-07-04T12:27:03;101143.50;;;31.18;26.51
22241;BME280;11289;52.524;13.694;2022-07-04T12:29:29;101140.34;;;30.78;27.59
22241;BME280;11289;52.524;13.694;2022-07-04T12:31:54;101139.06;;;30.79;28.45
22241;BME280;11289;52.524;13.694;2022-07-04T12:34:20;101139.50;;;31.16;27.08
22241;BME280;11289;52.524;13.694;2022-07-04T12:36:56;101141.69;;;31.47;26.94
22241;BME280;11289;52.524;13.694;2022-07-04T12:39:33;101146.94;;;31.83;26.76
22241;BME280;11289;52.524;13.694;2022-07-04T12:42:04;101139.53;;;31.95;25.89
22241;BME280;11289;52.524;13.694;2022-07-04T12:44:30;101135.13;;;32.25;25.27
22241;BME280;11289;52.524;13.694;2022-07-04T12:46:56;101133.03;;;32.57;25.12
22241;BME280;11289;52.524;13.694;2022-07-04T12:49:22;101128.63;;;32.34;25.10
22241;BME280;11289;52.524;13.694;2022-07-04T12:51:47;101142.88;;;31.93;25.43
22241;BME280;11289;52.524;13.694;2022-07-04T12:54:13;101136.47;;;31.32;26.25
22241;BME280;11289;52.524;13.694;2022-07-04T12:56:40;101134.78;;;30.96;26.59
22241;BME280;11289;52.524;13.694;2022-07-04T12:59:11;101128.75;;;30.55;27.00
22241;BME280;11289;52.524;13.694;2022-07-04T13:01:39;101135.16;;;30.47;27.76
22241;BME280;11289;52.524;13.694;2022-07-04T13:04:05;101141.31;;;30.32;28.45
22241;BME280;11289;52.524;13.694;2022-07-04T13:06:30;101132.94;;;30.25;27.89
22241;BME280;11289;52.524;13.694;2022-07-04T13:08:56;101132.59;;;30.23;28.42
22241;BME280;11289;52.524;13.694;2022-07-04T13:11:22;101113.84;;;30.35;27.25
22241;BME280;11289;52.524;13.694;2022-07-04T13:14:07;101123.94;;;30.52;27.41
22241;BME280;11289;52.524;13.694;2022-07-04T13:16:33;101117.75;;;31.05;27.19